Impacts METAR Board INFO
IDs:

KSTL - St Louis/Lambert Int, MO, US

Updated at: 0946 UTC 19 Jan 2018
Potential Impact None Slight Moderate High
Time18/21Z 18/22Z 18/23Z 19/00Z 19/01Z 19/02Z 19/03Z 19/04Z 19/05Z 19/06Z 19/07Z 19/08Z 19/09Z
VIS10 10 10 10 10 10 10 10 10 10 10 10 10
CIG-- -- -- -- -- -- 250 -- -- -- -- -- --
CoverSCTFEWFEWSCTFEWSCTBKNSCTSCTFEWCLRCLRSCT
FltCatVFRVFRVFRVFRVFRVFRVFRVFRVFRVFRVFRVFRVFR
WX--------------------------
WDir230210220210200220210210210190210210220
WSpd13 11 13 7 8 11 7 8 9 6 7 7 10
WGst-- -- -- -- -- -- -- -- -- -- -- -- --
Raw hourly METARs
KSTL 182051Z 23013KT 10SM SCT250 08/M11 A3020 RMK AO2 SLP238 T00781106 56025
KSTL 182151Z 21011KT 10SM FEW250 08/M11 A3018 RMK AO2 SLP230 T00781106
KSTL 182251Z 22013KT 10SM FEW250 07/M10 A3017 RMK AO2 SLP226 T00671100
KSTL 182351Z 21007KT 10SM FEW180 SCT250 05/M09 A3017 RMK AO2 SLP228 T00501094 10078 20033 55011
KSTL 190051Z 20008KT 10SM FEW250 05/M09 A3016 RMK AO2 SLP226 T00501094
KSTL 190151Z 22011KT 10SM SCT250 04/M08 A3017 RMK AO2 SLP227 T00441083
KSTL 190251Z 21007KT 10SM BKN250 04/M08 A3015 RMK AO2 SLP221 T00391078 58006
KSTL 190351Z 21008KT 10SM SCT250 03/M09 A3015 RMK AO2 SLP218 T00281089
KSTL 190451Z 21009KT 10SM SCT250 02/M09 A3014 RMK AO2 SLP217 T00171094
KSTL 190551Z 19006KT 10SM FEW250 01/M10 A3015 RMK AO2 SLP217 T00111100 10050 20011 400781072 55002
KSTL 190651Z 21007KT 10SM CLR 01/M11 A3012 RMK AO2 SLP207 T00061106
KSTL 190751Z 21007KT 10SM CLR 01/M11 A3011 RMK AO2 SLP203 T00061111
KSTL 190851Z 22010KT 10SM SCT250 01/M11 A3011 RMK AO2 SLP201 T00061111 56013